sensor_id;sensor_type;location;lat;lon;timestamp;P1;durP1;ratioP1;P2;durP2;ratioP2
17340;SDS011;8788;49.930;8.660;2022-12-18T04:04:45;20.58;;;10.15;;
17340;SDS011;8788;49.930;8.660;2022-12-18T04:07:15;24.85;;;12.30;;
17340;SDS011;8788;49.930;8.660;2022-12-18T04:09:43;20.95;;;12.18;;
17340;SDS011;8788;49.930;8.660;2022-12-18T04:12:13;21.85;;;11.52;;
17340;SDS011;8788;49.930;8.660;2022-12-18T04:14:40;21.30;;;11.10;;
17340;SDS011;8788;49.930;8.660;2022-12-18T04:17:08;21.63;;;12.45;;
17340;SDS011;8788;49.930;8.660;2022-12-18T04:19:36;19.33;;;10.68;;
17340;SDS011;8788;49.930;8.660;2022-12-18T04:22:04;24.63;;;11.68;;
17340;SDS011;8788;49.930;8.660;2022-12-18T04:24:38;20.77;;;10.00;;
17340;SDS011;8788;49.930;8.660;2022-12-18T04:27:12;21.48;;;11.25;;
17340;SDS011;8788;49.930;8.660;2022-12-18T04:29:47;20.52;;;11.20;;
17340;SDS011;8788;49.930;8.660;2022-12-18T04:32:17;24.92;;;10.80;;
17340;SDS011;8788;49.930;8.660;2022-12-18T04:34:45;18.88;;;11.35;;
17340;SDS011;8788;49.930;8.660;2022-12-18T04:37:14;17.13;;;11.30;;
17340;SDS011;8788;49.930;8.660;2022-12-18T04:39:41;21.27;;;10.93;;
17340;SDS011;8788;49.930;8.660;2022-12-18T04:42:15;19.90;;;10.68;;
17340;SDS011;8788;49.930;8.660;2022-12-18T04:44:42;17.48;;;10.88;;
17340;SDS011;8788;49.930;8.660;2022-12-18T04:47:09;20.05;;;11.52;;
17340;SDS011;8788;49.930;8.660;2022-12-18T04:49:40;19.83;;;11.05;;
17340;SDS011;8788;49.930;8.660;2022-12-18T04:52:07;20.58;;;10.95;;
17340;SDS011;8788;49.930;8.660;2022-12-18T04:54:35;20.17;;;11.57;;
17340;SDS011;8788;49.930;8.660;2022-12-18T04:57:02;16.88;;;9.93;;
17340;SDS011;8788;49.930;8.660;2022-12-18T04:59:29;17.55;;;10.52;;
17340;SDS011;8788;49.930;8.660;2022-12-18T05:01:56;20.38;;;11.80;;
17340;SDS011;8788;49.930;8.660;2022-12-18T05:04:24;16.98;;;11.57;;
17340;SDS011;8788;49.930;8.660;2022-12-18T05:06:51;25.30;;;10.63;;
17340;SDS011;8788;49.930;8.660;2022-12-18T05:09:18;24.38;;;12.15;;
17340;SDS011;8788;49.930;8.660;2022-12-18T05:11:46;23.15;;;12.15;;
17340;SDS011;8788;49.930;8.660;2022-12-18T05:14:13;27.05;;;11.75;;
17340;SDS011;8788;49.930;8.660;2022-12-18T05:16:40;25.75;;;12.50;;
17340;SDS011;8788;49.930;8.660;2022-12-18T05:19:08;22.67;;;11.55;;
17340;SDS011;8788;49.930;8.660;2022-12-18T05:21:35;22.70;;;13.23;;
17340;SDS011;8788;49.930;8.660;2022-12-18T05:24:03;27.02;;;13.70;;
17340;SDS011;8788;49.930;8.660;2022-12-18T05:26:30;21.85;;;12.57;;
17340;SDS011;8788;49.930;8.660;2022-12-18T05:28:59;21.98;;;12.77;;
17340;SDS011;8788;49.930;8.660;2022-12-18T05:31:26;27.83;;;12.30;;
17340;SDS011;8788;49.930;8.660;2022-12-18T05:33:53;26.15;;;11.95;;
17340;SDS011;8788;49.930;8.660;2022-12-18T05:36:20;19.60;;;10.35;;
17340;SDS011;8788;49.930;8.660;2022-12-18T05:38:47;20.60;;;11.32;;
17340;SDS011;8788;49.930;8.660;2022-12-18T05:41:15;20.10;;;11.98;;
17340;SDS011;8788;49.930;8.660;2022-12-18T05:43:42;21.27;;;12.43;;
17340;SDS011;8788;49.930;8.660;2022-12-18T05:46:11;27.67;;;12.13;;
17340;SDS011;8788;49.930;8.660;2022-12-18T05:48:39;22.63;;;12.05;;
17340;SDS011;8788;49.930;8.660;2022-12-18T05:51:08;24.25;;;12.00;;
17340;SDS011;8788;49.930;8.660;2022-12-18T05:53:36;19.83;;;9.98;;
17340;SDS011;8788;49.930;8.660;2022-12-18T05:56:04;23.80;;;11.15;;
17340;SDS011;8788;49.930;8.660;2022-12-18T05:58:33;22.42;;;11.90;;
17340;SDS011;8788;49.930;8.660;2022-12-18T06:01:05;22.17;;;11.50;;
17340;SDS011;8788;49.930;8.660;2022-12-18T06:03:36;19.10;;;10.77;;
17340;SDS011;8788;49.930;8.660;2022-12-18T06:06:03;19.30;;;10.82;;
17340;SDS011;8788;49.930;8.660;2022-12-18T06:08:30;19.77;;;11.18;;
17340;SDS011;8788;49.930;8.660;2022-12-18T06:10:57;22.35;;;12.50;;
17340;SDS011;8788;49.930;8.660;2022-12-18T06:13:24;18.80;;;9.95;;
17340;SDS011;8788;49.930;8.660;2022-12-18T06:15:51;20.42;;;11.63;;
17340;SDS011;8788;49.930;8.660;2022-12-18T06:18:18;13.48;;;10.32;;
17340;SDS011;8788;49.930;8.660;2022-12-18T06:20:55;18.88;;;11.00;;
17340;SDS011;8788;49.930;8.660;2022-12-18T06:23:22;22.80;;;13.27;;
17340;SDS011;8788;49.930;8.660;2022-12-18T06:25:49;22.73;;;12.75;;
17340;SDS011;8788;49.930;8.660;2022-12-18T06:28:17;20.38;;;12.13;;
17340;SDS011;8788;49.930;8.660;2022-12-18T06:30:44;23.33;;;12.88;;
17340;SDS011;8788;49.930;8.660;2022-12-18T06:33:12;23.10;;;12.15;;
17340;SDS011;8788;49.930;8.660;2022-12-18T06:35:39;20.38;;;11.63;;
17340;SDS011;8788;49.930;8.660;2022-12-18T06:38:08;17.55;;;11.23;;
17340;SDS011;8788;49.930;8.660;2022-12-18T06:40:36;23.75;;;12.10;;
17340;SDS011;8788;49.930;8.660;2022-12-18T06:43:04;19.92;;;9.63;;
17340;SDS011;8788;49.930;8.660;2022-12-18T06:45:32;19.50;;;12.02;;
17340;SDS011;8788;49.930;8.660;2022-12-18T06:47:59;23.58;;;12.50;;
17340;SDS011;8788;49.930;8.660;2022-12-18T06:50:26;22.33;;;12.40;;
17340;SDS011;8788;49.930;8.660;2022-12-18T06:52:53;22.35;;;10.98;;
17340;SDS011;8788;49.930;8.660;2022-12-18T06:55:21;21.67;;;11.77;;
17340;SDS011;8788;49.930;8.660;2022-12-18T06:57:48;24.20;;;10.90;;
17340;SDS011;8788;49.930;8.660;2022-12-18T07:00:16;19.70;;;12.43;;
17340;SDS011;8788;49.930;8.660;2022-12-18T07:02:43;23.27;;;11.23;;
17340;SDS011;8788;49.930;8.660;2022-12-18T07:05:10;20.65;;;11.02;;
17340;SDS011;8788;49.930;8.660;2022-12-18T07:07:37;22.42;;;12.35;;
17340;SDS011;8788;49.930;8.660;2022-12-18T07:10:05;21.13;;;12.10;;
17340;SDS011;8788;49.930;8.660;2022-12-18T07:12:33;20.27;;;10.80;;
17340;SDS011;8788;49.930;8.660;2022-12-18T07:15:00;15.00;;;10.35;;
17340;SDS011;8788;49.930;8.660;2022-12-18T07:17:28;17.80;;;9.77;;
17340;SDS011;8788;49.930;8.660;2022-12-18T07:19:55;23.00;;;12.32;;
17340;SDS011;8788;49.930;8.660;2022-12-18T07:22:22;21.38;;;11.23;;
17340;SDS011;8788;49.930;8.660;2022-12-18T07:24:50;21.00;;;11.25;;
17340;SDS011;8788;49.930;8.660;2022-12-18T07:27:18;18.67;;;10.10;;
17340;SDS011;8788;49.930;8.660;2022-12-18T07:29:46;22.42;;;11.85;;
17340;SDS011;8788;49.930;8.660;2022-12-18T07:32:13;21.95;;;11.68;;
17340;SDS011;8788;49.930;8.660;2022-12-18T07:34:41;21.40;;;9.68;;
17340;SDS011;8788;49.930;8.660;2022-12-18T07:37:08;19.38;;;9.65;;
17340;SDS011;8788;49.930;8.660;2022-12-18T07:39:35;18.33;;;10.50;;
17340;SDS011;8788;49.930;8.660;2022-12-18T07:42:02;22.50;;;11.35;;
17340;SDS011;8788;49.930;8.660;2022-12-18T07:44:48;18.65;;;12.73;;
17340;SDS011;8788;49.930;8.660;2022-12-18T07:47:15;24.00;;;13.10;;
17340;SDS011;8788;49.930;8.660;2022-12-18T07:49:43;29.08;;;13.50;;
17340;SDS011;8788;49.930;8.660;2022-12-18T07:52:10;24.02;;;12.40;;
17340;SDS011;8788;49.930;8.660;2022-12-18T07:54:37;17.95;;;11.07;;
17340;SDS011;8788;49.930;8.660;2022-12-18T07:57:05;23.48;;;12.43;;
17340;SDS011;8788;49.930;8.660;2022-12-18T07:59:32;21.50;;;11.70;;
17340;SDS011;8788;49.930;8.660;2022-12-18T08:02:01;23.25;;;11.57;;
17340;SDS011;8788;49.930;8.660;2022-12-18T08:04:28;22.00;;;11.80;;
17340;SDS011;8788;49.930;8.660;2022-12-18T08:06:55;25.77;;;13.52;;
17340;SDS011;8788;49.930;8.660;2022-12-18T08:09:22;20.67;;;10.98;;
17340;SDS011;8788;49.930;8.660;2022-12-18T08:11:49;33.28;;;14.45;;
17340;SDS011;8788;49.930;8.660;2022-12-18T08:14:16;22.27;;;13.23;;
17340;SDS011;8788;49.930;8.660;2022-12-18T08:16:43;34.03;;;14.98;;
17340;SDS011;8788;49.930;8.660;2022-12-18T08:19:11;28.52;;;16.08;;
17340;SDS011;8788;49.930;8.660;2022-12-18T08:21:39;30.58;;;13.85;;
17340;SDS011;8788;49.930;8.660;2022-12-18T08:24:06;34.97;;;16.55;;
17340;SDS011;8788;49.930;8.660;2022-12-18T08:26:35;46.13;;;20.50;;
17340;SDS011;8788;49.930;8.660;2022-12-18T08:29:02;35.08;;;16.45;;
17340;SDS011;8788;49.930;8.660;2022-12-18T08:31:29;26.60;;;13.65;;
17340;SDS011;8788;49.930;8.660;2022-12-18T08:33:58;20.75;;;12.32;;
17340;SDS011;8788;49.930;8.660;2022-12-18T08:36:26;24.83;;;12.57;;
17340;SDS011;8788;49.930;8.660;2022-12-18T08:38:53;30.77;;;14.63;;
17340;SDS011;8788;49.930;8.660;2022-12-18T08:41:21;17.83;;;10.93;;
17340;SDS011;8788;49.930;8.660;2022-12-18T08:43:48;24.35;;;13.43;;
17340;SDS011;8788;49.930;8.660;2022-12-18T08:46:34;27.08;;;14.98;;
17340;SDS011;8788;49.930;8.660;2022-12-18T08:49:02;32.45;;;15.50;;
17340;SDS011;8788;49.930;8.660;2022-12-18T08:51:31;29.80;;;15.57;;
17340;SDS011;8788;49.930;8.660;2022-12-18T08:53:59;24.48;;;14.68;;
17340;SDS011;8788;49.930;8.660;2022-12-18T08:56:26;24.48;;;13.93;;
17340;SDS011;8788;49.930;8.660;2022-12-18T08:58:53;30.15;;;15.68;;
17340;SDS011;8788;49.930;8.660;2022-12-18T09:01:20;25.60;;;14.10;;
17340;SDS011;8788;49.930;8.660;2022-12-18T09:03:48;27.08;;;13.15;;
17340;SDS011;8788;49.930;8.660;2022-12-18T09:06:15;23.45;;;13.70;;
17340;SDS011;8788;49.930;8.660;2022-12-18T09:08:45;28.38;;;13.77;;
17340;SDS011;8788;49.930;8.660;2022-12-18T09:11:13;23.38;;;12.65;;
17340;SDS011;8788;49.930;8.660;2022-12-18T09:13:41;30.17;;;15.65;;
17340;SDS011;8788;49.930;8.660;2022-12-18T09:16:08;34.40;;;15.30;;
17340;SDS011;8788;49.930;8.660;2022-12-18T09:18:35;33.58;;;15.73;;
17340;SDS011;8788;49.930;8.660;2022-12-18T09:21:07;26.75;;;13.68;;
17340;SDS011;8788;49.930;8.660;2022-12-18T09:23:35;24.48;;;13.65;;
17340;SDS011;8788;49.930;8.660;2022-12-18T09:26:04;29.73;;;15.82;;
17340;SDS011;8788;49.930;8.660;2022-12-18T09:28:31;30.27;;;14.45;;
17340;SDS011;8788;49.930;8.660;2022-12-18T09:30:58;58.58;;;29.67;;
17340;SDS011;8788;49.930;8.660;2022-12-18T09:33:25;28.45;;;14.63;;
17340;SDS011;8788;49.930;8.660;2022-12-18T09:35:52;28.77;;;15.07;;
17340;SDS011;8788;49.930;8.660;2022-12-18T09:38:19;27.08;;;14.52;;
17340;SDS011;8788;49.930;8.660;2022-12-18T09:40:49;27.55;;;15.10;;
17340;SDS011;8788;49.930;8.660;2022-12-18T09:43:20;26.13;;;13.68;;
17340;SDS011;8788;49.930;8.660;2022-12-18T09:45:53;29.38;;;14.27;;
17340;SDS011;8788;49.930;8.660;2022-12-18T09:48:32;29.98;;;15.23;;
17340;SDS011;8788;49.930;8.660;2022-12-18T09:51:03;23.38;;;12.98;;
17340;SDS011;8788;49.930;8.660;2022-12-18T09:53:39;31.95;;;15.10;;
17340;SDS011;8788;49.930;8.660;2022-12-18T09:56:10;28.92;;;14.77;;
17340;SDS011;8788;49.930;8.660;2022-12-18T09:58:44;30.17;;;16.13;;
17340;SDS011;8788;49.930;8.660;2022-12-18T10:01:18;30.90;;;15.68;;
17340;SDS011;8788;49.930;8.660;2022-12-18T10:03:47;26.27;;;14.07;;
17340;SDS011;8788;49.930;8.660;2022-12-18T10:06:15;25.27;;;15.23;;
17340;SDS011;8788;49.930;8.660;2022-12-18T10:08:49;27.58;;;14.80;;
17340;SDS011;8788;49.930;8.660;2022-12-18T10:11:28;29.50;;;15.77;;
17340;SDS011;8788;49.930;8.660;2022-12-18T10:14:07;30.30;;;15.73;;
17340;SDS011;8788;49.930;8.660;2022-12-18T10:16:43;30.63;;;15.38;;
17340;SDS011;8788;49.930;8.660;2022-12-18T10:19:32;31.40;;;14.77;;
17340;SDS011;8788;49.930;8.660;2022-12-18T10:22:10;37.22;;;17.38;;
17340;SDS011;8788;49.930;8.660;2022-12-18T10:24:47;27.40;;;13.70;;
17340;SDS011;8788;49.930;8.660;2022-12-18T10:27:26;26.38;;;14.65;;
17340;SDS011;8788;49.930;8.660;2022-12-18T10:29:55;35.67;;;16.30;;
17340;SDS011;8788;49.930;8.660;2022-12-18T10:32:24;35.30;;;16.10;;
17340;SDS011;8788;49.930;8.660;2022-12-18T10:34:53;35.00;;;19.77;;
17340;SDS011;8788;49.930;8.660;2022-12-18T10:37:23;36.95;;;17.83;;
17340;SDS011;8788;49.930;8.660;2022-12-18T10:40:04;38.50;;;17.40;;
17340;SDS011;8788;49.930;8.660;2022-12-18T10:42:34;27.02;;;15.18;;
17340;SDS011;8788;49.930;8.660;2022-12-18T10:45:05;32.55;;;16.40;;
17340;SDS011;8788;49.930;8.660;2022-12-18T10:47:35;32.50;;;15.20;;
17340;SDS011;8788;49.930;8.660;2022-12-18T10:50:02;31.95;;;16.33;;
17340;SDS011;8788;49.930;8.660;2022-12-18T10:52:30;35.03;;;15.73;;
17340;SDS011;8788;49.930;8.660;2022-12-18T10:54:58;35.75;;;17.92;;
17340;SDS011;8788;49.930;8.660;2022-12-18T10:57:32;33.55;;;16.70;;
17340;SDS011;8788;49.930;8.660;2022-12-18T11:02:51;34.00;;;16.35;;
17340;SDS011;8788;49.930;8.660;2022-12-18T11:05:25;31.58;;;15.05;;
17340;SDS011;8788;49.930;8.660;2022-12-18T11:07:54;29.13;;;16.23;;
17340;SDS011;8788;49.930;8.660;2022-12-18T11:10:23;33.03;;;15.80;;
17340;SDS011;8788;49.930;8.660;2022-12-18T11:12:55;27.13;;;15.18;;
17340;SDS011;8788;49.930;8.660;2022-12-18T11:15:25;28.05;;;14.70;;
17340;SDS011;8788;49.930;8.660;2022-12-18T11:17:55;33.00;;;15.88;;
17340;SDS011;8788;49.930;8.660;2022-12-18T11:20:29;31.42;;;16.02;;
17340;SDS011;8788;49.930;8.660;2022-12-18T11:22:58;33.83;;;16.75;;
17340;SDS011;8788;49.930;8.660;2022-12-18T11:25:28;31.92;;;15.88;;
17340;SDS011;8788;49.930;8.660;2022-12-18T11:27:57;34.38;;;16.27;;
17340;SDS011;8788;49.930;8.660;2022-12-18T11:30:28;32.78;;;16.15;;
17340;SDS011;8788;49.930;8.660;2022-12-18T11:32:56;38.88;;;15.02;;
17340;SDS011;8788;49.930;8.660;2022-12-18T11:35:34;37.60;;;16.77;;
17340;SDS011;8788;49.930;8.660;2022-12-18T11:38:10;32.35;;;15.10;;
17340;SDS011;8788;49.930;8.660;2022-12-18T11:40:47;29.40;;;15.20;;
17340;SDS011;8788;49.930;8.660;2022-12-18T11:43:21;29.73;;;15.63;;
17340;SDS011;8788;49.930;8.660;2022-12-18T11:45:56;30.23;;;14.55;;
17340;SDS011;8788;49.930;8.660;2022-12-18T11:48:30;32.53;;;14.88;;
17340;SDS011;8788;49.930;8.660;2022-12-18T11:51:01;31.42;;;15.63;;
17340;SDS011;8788;49.930;8.660;2022-12-18T11:53:31;29.40;;;16.17;;
17340;SDS011;8788;49.930;8.660;2022-12-18T11:56:00;28.58;;;14.85;;
17340;SDS011;8788;49.930;8.660;2022-12-18T11:58:36;28.80;;;14.02;;
17340;SDS011;8788;49.930;8.660;2022-12-18T12:01:15;36.03;;;16.73;;
17340;SDS011;8788;49.930;8.660;2022-12-18T12:03:54;32.80;;;15.65;;
17340;SDS011;8788;49.930;8.660;2022-12-18T12:06:42;37.90;;;17.23;;
17340;SDS011;8788;49.930;8.660;2022-12-18T12:09:19;30.33;;;15.35;;
17340;SDS011;8788;49.930;8.660;2022-12-18T12:11:56;33.53;;;14.95;;
17340;SDS011;8788;49.930;8.660;2022-12-18T12:14:34;29.45;;;14.52;;
17340;SDS011;8788;49.930;8.660;2022-12-18T12:17:16;34.30;;;16.20;;
17340;SDS011;8788;49.930;8.660;2022-12-18T12:19:52;37.50;;;16.38;;
17340;SDS011;8788;49.930;8.660;2022-12-18T12:22:25;35.33;;;16.83;;
17340;SDS011;8788;49.930;8.660;2022-12-18T12:25:04;41.28;;;18.65;;
17340;SDS011;8788;49.930;8.660;2022-12-18T12:27:41;37.15;;;18.17;;
17340;SDS011;8788;49.930;8.660;2022-12-18T12:30:16;44.55;;;19.85;;
17340;SDS011;8788;49.930;8.660;2022-12-18T12:32:52;54.13;;;21.27;;
17340;SDS011;8788;49.930;8.660;2022-12-18T12:35:31;103.90;;;35.95;;
17340;SDS011;8788;49.930;8.660;2022-12-18T12:38:06;42.58;;;20.33;;
17340;SDS011;8788;49.930;8.660;2022-12-18T12:40:36;32.00;;;16.85;;
17340;SDS011;8788;49.930;8.660;2022-12-18T12:43:12;34.90;;;16.23;;
17340;SDS011;8788;49.930;8.660;2022-12-18T12:45:48;39.60;;;17.63;;
17340;SDS011;8788;49.930;8.660;2022-12-18T12:48:23;41.25;;;18.10;;
17340;SDS011;8788;49.930;8.660;2022-12-18T12:51:00;36.90;;;16.48;;
17340;SDS011;8788;49.930;8.660;2022-12-18T12:53:32;37.58;;;15.80;;
17340;SDS011;8788;49.930;8.660;2022-12-18T12:56:02;29.52;;;15.43;;
17340;SDS011;8788;49.930;8.660;2022-12-18T12:58:31;38.30;;;17.27;;
17340;SDS011;8788;49.930;8.660;2022-12-18T13:01:10;34.38;;;14.82;;
17340;SDS011;8788;49.930;8.660;2022-12-18T13:03:48;36.92;;;16.65;;
17340;SDS011;8788;49.930;8.660;2022-12-18T13:06:24;39.47;;;19.52;;
17340;SDS011;8788;49.930;8.660;2022-12-18T13:08:59;41.45;;;19.30;;
17340;SDS011;8788;49.930;8.660;2022-12-18T13:11:29;34.88;;;16.83;;
17340;SDS011;8788;49.930;8.660;2022-12-18T13:14:22;38.40;;;16.65;;
17340;SDS011;8788;49.930;8.660;2022-12-18T13:16:50;32.03;;;14.85;;
17340;SDS011;8788;49.930;8.660;2022-12-18T13:19:22;30.90;;;14.73;;
17340;SDS011;8788;49.930;8.660;2022-12-18T13:21:53;30.98;;;15.40;;
17340;SDS011;8788;49.930;8.660;2022-12-18T13:24:23;27.50;;;13.40;;
17340;SDS011;8788;49.930;8.660;2022-12-18T13:26:52;41.65;;;17.73;;
17340;SDS011;8788;49.930;8.660;2022-12-18T13:32:19;31.50;;;14.35;;
17340;SDS011;8788;49.930;8.660;2022-12-18T13:34:49;30.77;;;13.45;;
17340;SDS011;8788;49.930;8.660;2022-12-18T13:37:54;26.88;;;12.68;;
17340;SDS011;8788;49.930;8.660;2022-12-18T13:43:28;32.67;;;14.85;;
17340;SDS011;8788;49.930;8.660;2022-12-18T13:46:00;30.63;;;13.43;;
17340;SDS011;8788;49.930;8.660;2022-12-18T13:48:47;28.38;;;12.88;;
17340;SDS011;8788;49.930;8.660;2022-12-18T13:51:19;31.08;;;13.55;;
17340;SDS011;8788;49.930;8.660;2022-12-18T13:53:48;26.17;;;13.05;;
17340;SDS011;8788;49.930;8.660;2022-12-18T13:56:18;27.05;;;13.63;;
17340;SDS011;8788;49.930;8.660;2022-12-18T14:01:41;36.35;;;13.00;;
17340;SDS011;8788;49.930;8.660;2022-12-18T14:04:17;28.02;;;14.13;;
17340;SDS011;8788;49.930;8.660;2022-12-18T14:06:49;31.83;;;13.85;;
17340;SDS011;8788;49.930;8.660;2022-12-18T14:09:19;29.15;;;14.43;;
17340;SDS011;8788;49.930;8.660;2022-12-18T14:11:50;35.28;;;15.02;;
17340;SDS011;8788;49.930;8.660;2022-12-18T14:14:40;24.23;;;12.00;;
17340;SDS011;8788;49.930;8.660;2022-12-18T14:17:10;35.58;;;15.13;;
17340;SDS011;8788;49.930;8.660;2022-12-18T14:19:41;32.70;;;15.27;;
17340;SDS011;8788;49.930;8.660;2022-12-18T14:22:14;27.50;;;14.18;;
17340;SDS011;8788;49.930;8.660;2022-12-18T14:24:43;30.85;;;13.48;;
17340;SDS011;8788;49.930;8.660;2022-12-18T14:27:20;32.42;;;14.63;;
17340;SDS011;8788;49.930;8.660;2022-12-18T14:29:49;31.98;;;13.43;;
17340;SDS011;8788;49.930;8.660;2022-12-18T14:32:17;28.50;;;14.50;;
17340;SDS011;8788;49.930;8.660;2022-12-18T14:34:45;31.52;;;14.05;;
17340;SDS011;8788;49.930;8.660;2022-12-18T14:37:16;32.42;;;15.55;;
17340;SDS011;8788;49.930;8.660;2022-12-18T14:39:55;32.38;;;13.35;;
17340;SDS011;8788;49.930;8.660;2022-12-18T14:42:24;25.85;;;13.50;;
17340;SDS011;8788;49.930;8.660;2022-12-18T14:47:59;29.65;;;13.65;;
17340;SDS011;8788;49.930;8.660;2022-12-18T14:50:26;31.90;;;14.32;;
17340;SDS011;8788;49.930;8.660;2022-12-18T14:52:55;30.92;;;14.52;;
17340;SDS011;8788;49.930;8.660;2022-12-18T14:55:22;26.63;;;13.20;;
17340;SDS011;8788;49.930;8.660;2022-12-18T14:57:49;26.70;;;13.27;;
17340;SDS011;8788;49.930;8.660;2022-12-18T15:00:18;30.70;;;14.30;;
17340;SDS011;8788;49.930;8.660;2022-12-18T15:02:47;29.27;;;13.70;;
17340;SDS011;8788;49.930;8.660;2022-12-18T15:05:18;31.13;;;14.60;;
17340;SDS011;8788;49.930;8.660;2022-12-18T15:07:47;27.25;;;13.73;;
17340;SDS011;8788;49.930;8.660;2022-12-18T15:10:16;27.42;;;11.85;;
17340;SDS011;8788;49.930;8.660;2022-12-18T15:12:46;28.92;;;13.15;;
17340;SDS011;8788;49.930;8.660;2022-12-18T15:18:17;22.65;;;12.63;;
17340;SDS011;8788;49.930;8.660;2022-12-18T15:20:46;31.17;;;13.43;;
17340;SDS011;8788;49.930;8.660;2022-12-18T15:23:19;30.20;;;13.23;;
17340;SDS011;8788;49.930;8.660;2022-12-18T15:25:54;22.90;;;11.80;;
17340;SDS011;8788;49.930;8.660;2022-12-18T15:28:23;25.00;;;13.48;;
17340;SDS011;8788;49.930;8.660;2022-12-18T15:34:04;29.70;;;12.85;;
17340;SDS011;8788;49.930;8.660;2022-12-18T15:36:37;28.05;;;13.95;;
17340;SDS011;8788;49.930;8.660;2022-12-18T15:39:04;31.23;;;12.88;;
17340;SDS011;8788;49.930;8.660;2022-12-18T15:41:34;33.22;;;13.57;;
17340;SDS011;8788;49.930;8.660;2022-12-18T15:44:02;32.13;;;14.73;;
17340;SDS011;8788;49.930;8.660;2022-12-18T15:46:45;36.72;;;16.98;;
17340;SDS011;8788;49.930;8.660;2022-12-18T15:49:12;27.48;;;14.25;;
17340;SDS011;8788;49.930;8.660;2022-12-18T15:51:39;28.55;;;13.43;;
17340;SDS011;8788;49.930;8.660;2022-12-18T15:54:09;30.40;;;15.00;;
17340;SDS011;8788;49.930;8.660;2022-12-18T15:56:42;37.85;;;16.17;;
17340;SDS011;8788;49.930;8.660;2022-12-18T15:59:26;36.35;;;16.35;;
17340;SDS011;8788;49.930;8.660;2022-12-18T16:01:53;29.40;;;14.52;;
17340;SDS011;8788;49.930;8.660;2022-12-18T16:04:21;38.45;;;19.13;;
17340;SDS011;8788;49.930;8.660;2022-12-18T16:06:49;29.40;;;14.20;;
17340;SDS011;8788;49.930;8.660;2022-12-18T16:09:17;28.15;;;13.18;;
17340;SDS011;8788;49.930;8.660;2022-12-18T16:11:46;29.02;;;13.82;;
17340;SDS011;8788;49.930;8.660;2022-12-18T16:14:16;32.88;;;13.93;;
17340;SDS011;8788;49.930;8.660;2022-12-18T16:16:44;30.02;;;14.77;;
17340;SDS011;8788;49.930;8.660;2022-12-18T16:19:12;32.72;;;15.75;;
17340;SDS011;8788;49.930;8.660;2022-12-18T16:21:39;29.50;;;13.82;;
17340;SDS011;8788;49.930;8.660;2022-12-18T16:24:08;25.48;;;13.38;;
17340;SDS011;8788;49.930;8.660;2022-12-18T16:26:40;28.10;;;13.48;;
17340;SDS011;8788;49.930;8.660;2022-12-18T16:29:09;32.47;;;16.65;;
17340;SDS011;8788;49.930;8.660;2022-12-18T16:31:37;31.40;;;14.63;;
17340;SDS011;8788;49.930;8.660;2022-12-18T16:34:14;30.75;;;14.75;;
17340;SDS011;8788;49.930;8.660;2022-12-18T16:36:47;23.80;;;12.30;;
17340;SDS011;8788;49.930;8.660;2022-12-18T16:39:14;26.67;;;11.27;;
17340;SDS011;8788;49.930;8.660;2022-12-18T16:41:44;27.80;;;14.32;;
17340;SDS011;8788;49.930;8.660;2022-12-18T16:44:12;27.25;;;12.98;;
17340;SDS011;8788;49.930;8.660;2022-12-18T16:46:40;35.33;;;16.33;;
17340;SDS011;8788;49.930;8.660;2022-12-18T16:49:10;35.25;;;18.08;;
17340;SDS011;8788;49.930;8.660;2022-12-18T16:51:37;29.55;;;15.27;;
17340;SDS011;8788;49.930;8.660;2022-12-18T16:54:05;24.98;;;12.70;;
17340;SDS011;8788;49.930;8.660;2022-12-18T16:56:32;28.33;;;13.27;;
17340;SDS011;8788;49.930;8.660;2022-12-18T16:59:00;28.52;;;12.82;;
17340;SDS011;8788;49.930;8.660;2022-12-18T17:01:30;30.80;;;13.30;;
17340;SDS011;8788;49.930;8.660;2022-12-18T17:03:58;28.10;;;13.52;;
17340;SDS011;8788;49.930;8.660;2022-12-18T17:06:27;22.60;;;11.77;;
17340;SDS011;8788;49.930;8.660;2022-12-18T17:08:56;35.42;;;14.90;;
17340;SDS011;8788;49.930;8.660;2022-12-18T17:11:25;28.70;;;13.63;;
17340;SDS011;8788;49.930;8.660;2022-12-18T17:13:53;27.27;;;13.07;;
17340;SDS011;8788;49.930;8.660;2022-12-18T17:16:20;27.85;;;13.38;;
17340;SDS011;8788;49.930;8.660;2022-12-18T17:18:49;32.33;;;15.57;;
17340;SDS011;8788;49.930;8.660;2022-12-18T17:21:18;30.40;;;13.93;;
17340;SDS011;8788;49.930;8.660;2022-12-18T17:23:45;33.33;;;14.43;;
17340;SDS011;8788;49.930;8.660;2022-12-18T17:26:12;28.13;;;14.25;;
17340;SDS011;8788;49.930;8.660;2022-12-18T17:28:39;31.63;;;14.60;;
17340;SDS011;8788;49.930;8.660;2022-12-18T17:31:10;30.27;;;14.00;;
17340;SDS011;8788;49.930;8.660;2022-12-18T17:33:39;29.25;;;15.30;;
17340;SDS011;8788;49.930;8.660;2022-12-18T17:36:08;31.30;;;13.63;;
17340;SDS011;8788;49.930;8.660;2022-12-18T17:38:35;23.08;;;12.93;;
17340;SDS011;8788;49.930;8.660;2022-12-18T17:41:03;28.08;;;13.80;;
17340;SDS011;8788;49.930;8.660;2022-12-18T17:43:32;32.00;;;13.88;;
17340;SDS011;8788;49.930;8.660;2022-12-18T17:46:00;26.05;;;12.77;;
17340;SDS011;8788;49.930;8.660;2022-12-18T17:48:27;27.77;;;12.45;;
17340;SDS011;8788;49.930;8.660;2022-12-18T17:50:54;26.45;;;12.05;;
17340;SDS011;8788;49.930;8.660;2022-12-18T17:53:28;25.95;;;13.75;;
17340;SDS011;8788;49.930;8.660;2022-12-18T17:55:56;33.40;;;13.43;;
17340;SDS011;8788;49.930;8.660;2022-12-18T17:58:25;24.95;;;13.15;;
17340;SDS011;8788;49.930;8.660;2022-12-18T18:00:52;29.52;;;12.35;;
17340;SDS011;8788;49.930;8.660;2022-12-18T18:03:20;27.48;;;12.45;;
17340;SDS011;8788;49.930;8.660;2022-12-18T18:05:47;29.30;;;13.50;;
17340;SDS011;8788;49.930;8.660;2022-12-18T18:08:14;29.38;;;12.75;;
17340;SDS011;8788;49.930;8.660;2022-12-18T18:10:42;30.42;;;15.57;;
17340;SDS011;8788;49.930;8.660;2022-12-18T18:13:16;32.97;;;15.88;;
17340;SDS011;8788;49.930;8.660;2022-12-18T18:16:04;33.08;;;15.50;;
17340;SDS011;8788;49.930;8.660;2022-12-18T18:18:31;33.67;;;15.27;;
17340;SDS011;8788;49.930;8.660;2022-12-18T18:21:02;29.70;;;13.65;;
17340;SDS011;8788;49.930;8.660;2022-12-18T18:23:30;29.45;;;14.73;;
17340;SDS011;8788;49.930;8.660;2022-12-18T18:26:02;24.05;;;13.70;;
17340;SDS011;8788;49.930;8.660;2022-12-18T18:28:29;29.10;;;13.38;;
17340;SDS011;8788;49.930;8.660;2022-12-18T18:30:56;30.40;;;14.00;;
17340;SDS011;8788;49.930;8.660;2022-12-18T18:33:24;29.70;;;13.73;;
17340;SDS011;8788;49.930;8.660;2022-12-18T18:35:51;27.75;;;12.80;;
17340;SDS011;8788;49.930;8.660;2022-12-18T18:38:18;32.10;;;13.95;;
17340;SDS011;8788;49.930;8.660;2022-12-18T18:40:45;29.63;;;14.40;;
17340;SDS011;8788;49.930;8.660;2022-12-18T18:43:13;24.35;;;12.63;;
17340;SDS011;8788;49.930;8.660;2022-12-18T18:45:40;32.40;;;13.88;;
17340;SDS011;8788;49.930;8.660;2022-12-18T18:48:07;23.35;;;13.15;;
17340;SDS011;8788;49.930;8.660;2022-12-18T18:50:34;29.13;;;14.30;;
17340;SDS011;8788;49.930;8.660;2022-12-18T18:53:01;26.27;;;13.77;;
17340;SDS011;8788;49.930;8.660;2022-12-18T18:55:31;31.55;;;13.40;;
17340;SDS011;8788;49.930;8.660;2022-12-18T18:57:58;30.38;;;14.25;;
17340;SDS011;8788;49.930;8.660;2022-12-18T19:00:27;27.45;;;13.52;;
17340;SDS011;8788;49.930;8.660;2022-12-18T19:02:54;30.45;;;13.38;;
17340;SDS011;8788;49.930;8.660;2022-12-18T19:05:21;22.92;;;13.13;;
17340;SDS011;8788;49.930;8.660;2022-12-18T19:07:48;28.83;;;13.90;;
17340;SDS011;8788;49.930;8.660;2022-12-18T19:10:15;31.65;;;15.77;;
17340;SDS011;8788;49.930;8.660;2022-12-18T19:12:42;25.52;;;12.52;;
17340;SDS011;8788;49.930;8.660;2022-12-18T19:15:28;29.30;;;13.98;;
17340;SDS011;8788;49.930;8.660;2022-12-18T19:17:55;25.02;;;12.48;;